createdAt,value
2018-09-29T00:01:24.416Z,7.83
2018-09-29T00:03:57.101Z,6.10
2018-09-29T00:06:29.684Z,8.63
2018-09-29T00:09:02.389Z,7.30
2018-09-29T00:11:34.915Z,4.70
2018-09-29T00:14:08.192Z,7.00
2018-09-29T00:16:40.984Z,4.27
2018-09-29T00:19:13.338Z,4.23
2018-09-29T00:21:46.127Z,8.40
2018-09-29T00:24:18.559Z,4.47
2018-09-29T00:26:51.436Z,9.07
2018-09-29T00:29:23.893Z,10.97
2018-09-29T00:31:56.952Z,6.53
2018-09-29T00:34:29.682Z,10.17
2018-09-29T00:37:02.280Z,4.53
2018-09-29T00:39:34.905Z,3.87
2018-09-29T00:42:07.445Z,8.57
2018-09-29T00:44:40.034Z,9.70
2018-09-29T00:47:12.869Z,4.27
2018-09-29T00:49:45.362Z,10.70
2018-09-29T00:52:17.843Z,8.83
2018-09-29T00:54:50.438Z,4.67
2018-09-29T00:57:22.940Z,8.37
2018-09-29T00:59:55.485Z,6.73
2018-09-29T01:02:27.936Z,9.97
2018-09-29T01:05:00.351Z,5.63
2018-09-29T01:07:33.518Z,10.30
2018-09-29T01:10:06.052Z,7.60
2018-09-29T01:12:38.559Z,6.90
2018-09-29T01:15:11.031Z,10.37
2018-09-29T01:17:43.559Z,8.27
2018-09-29T01:20:16.054Z,7.97
2018-09-29T01:22:48.863Z,8.33
2018-09-29T01:25:21.345Z,9.27
2018-09-29T01:27:54.012Z,8.33
2018-09-29T01:30:26.602Z,7.87
2018-09-29T01:32:59.085Z,4.83
2018-09-29T01:35:31.544Z,5.30
2018-09-29T01:38:04.117Z,5.40
2018-09-29T01:40:36.612Z,6.03
2018-09-29T01:43:09.108Z,7.03
2018-09-29T01:45:41.694Z,8.47
2018-09-29T01:48:14.300Z,5.57
2018-09-29T01:50:46.902Z,6.03
2018-09-29T01:53:20.649Z,6.23
2018-09-29T01:55:53.420Z,7.93
2018-09-29T01:58:26.006Z,6.00
2018-09-29T02:00:58.558Z,7.33
2018-09-29T02:03:30.990Z,4.17
2018-09-29T02:06:04.101Z,9.83
2018-09-29T02:08:36.944Z,5.90
2018-09-29T02:11:09.528Z,8.10
2018-09-29T02:13:42.042Z,8.50
2018-09-29T02:16:14.502Z,4.47
2018-09-29T02:18:47.161Z,9.03
2018-09-29T02:21:19.990Z,6.63
2018-09-29T02:23:52.710Z,5.47
2018-09-29T02:26:25.284Z,5.13
2018-09-29T02:28:57.978Z,7.97
2018-09-29T02:31:30.435Z,8.33
2018-09-29T02:34:02.861Z,6.67
2018-09-29T02:36:35.613Z,7.03
2018-09-29T02:39:09.549Z,6.03
2018-09-29T02:41:43.085Z,7.60
2018-09-29T02:44:15.544Z,10.07
2018-09-29T02:46:48.027Z,6.00
2018-09-29T02:49:20.589Z,5.27
2018-09-29T02:51:53.045Z,3.73
2018-09-29T02:54:25.440Z,6.87
2018-09-29T02:56:58.185Z,6.03
2018-09-29T02:59:30.806Z,5.70
2018-09-29T03:02:03.444Z,4.60
2018-09-29T03:04:35.857Z,10.10
2018-09-29T03:07:08.587Z,10.57
2018-09-29T03:09:41.014Z,5.67
2018-09-29T03:12:13.471Z,7.23
2018-09-29T03:14:45.863Z,6.73
2018-09-29T03:17:18.333Z,6.83
2018-09-29T03:19:50.833Z,4.33
2018-09-29T03:22:23.241Z,4.00
2018-09-29T03:24:55.703Z,4.47
2018-09-29T03:27:28.113Z,6.50
2018-09-29T03:30:00.949Z,6.70
2018-09-29T03:32:33.332Z,3.30
2018-09-29T03:35:05.803Z,6.43
2018-09-29T03:37:38.227Z,8.87
2018-09-29T03:40:10.997Z,8.57
2018-09-29T03:42:43.449Z,7.13
2018-09-29T03:45:15.825Z,4.80
2018-09-29T03:47:48.434Z,7.13
2018-09-29T03:50:20.991Z,7.03
2018-09-29T03:52:53.666Z,6.20
2018-09-29T03:55:26.194Z,6.97
2018-09-29T03:57:58.991Z,7.40
2018-09-29T04:00:31.603Z,3.83
2018-09-29T04:03:04.042Z,5.67
2018-09-29T04:05:36.473Z,5.90
2018-09-29T04:08:08.926Z,5.50
2018-09-29T04:10:41.477Z,11.73
2018-09-29T04:13:13.924Z,6.40
2018-09-29T04:15:46.357Z,7.93
2018-09-29T04:18:18.805Z,6.33
2018-09-29T04:20:51.291Z,4.73
2018-09-29T04:23:23.725Z,5.20
2018-09-29T04:25:56.193Z,5.00
2018-09-29T04:28:28.627Z,5.03
2018-09-29T04:31:01.069Z,4.27
2018-09-29T04:33:33.632Z,5.17
2018-09-29T04:36:06.082Z,9.27
2018-09-29T04:38:39.018Z,6.43
2018-09-29T04:41:12.171Z,8.17
2018-09-29T04:43:44.657Z,8.63
2018-09-29T04:46:17.818Z,4.30
2018-09-29T04:48:50.425Z,4.77
2018-09-29T04:51:22.930Z,8.03
2018-09-29T04:53:55.986Z,7.80
2018-09-29T04:56:28.557Z,7.17
2018-09-29T04:59:01.309Z,5.00
2018-09-29T05:01:34.119Z,7.60
2018-09-29T05:04:06.634Z,5.70
2018-09-29T05:06:39.316Z,8.67
2018-09-29T05:09:12.130Z,9.60
2018-09-29T05:11:44.734Z,12.13
2018-09-29T05:14:17.385Z,4.63
2018-09-29T05:16:50.031Z,6.20
2018-09-29T05:19:22.627Z,3.67
2018-09-29T05:21:55.181Z,6.43
2018-09-29T05:24:27.838Z,4.13
2018-09-29T05:27:00.682Z,7.43
2018-09-29T05:29:33.600Z,10.30
2018-09-29T05:32:06.334Z,4.83
2018-09-29T05:34:40.064Z,8.03
2018-09-29T05:37:13.296Z,6.47
2018-09-29T05:39:45.847Z,6.87
2018-09-29T05:42:18.866Z,8.73
2018-09-29T05:44:51.494Z,6.73
2018-09-29T05:47:24.360Z,7.57
2018-09-29T05:49:57.275Z,9.70
2018-09-29T05:52:29.777Z,8.13
2018-09-29T05:55:02.633Z,6.40
2018-09-29T05:57:35.246Z,4.60
2018-09-29T06:00:07.997Z,7.57
2018-09-29T06:02:40.924Z,7.73
2018-09-29T06:05:13.407Z,4.77
2018-09-29T06:07:46.064Z,6.80
2018-09-29T06:10:18.767Z,3.57
2018-09-29T06:12:51.362Z,6.13
2018-09-29T06:15:24.002Z,9.13
2018-09-29T06:17:56.695Z,9.30
2018-09-29T06:20:29.411Z,4.57
2018-09-29T06:23:02.079Z,6.83
2018-09-29T06:25:34.711Z,10.87
2018-09-29T06:28:07.528Z,11.53
2018-09-29T06:30:40.119Z,8.57
2018-09-29T06:33:12.894Z,7.60
2018-09-29T06:35:45.657Z,5.93
2018-09-29T06:38:18.432Z,6.40
2018-09-29T06:40:51.228Z,6.43
2018-09-29T06:43:23.902Z,5.50
2018-09-29T06:45:56.616Z,6.10
2018-09-29T06:48:29.183Z,9.33
2018-09-29T06:51:01.627Z,8.33
2018-09-29T06:53:34.394Z,9.93
2018-09-29T06:56:07.126Z,8.40
2018-09-29T06:58:39.712Z,7.87
2018-09-29T07:01:12.337Z,9.10
2018-09-29T07:03:45.030Z,5.73
2018-09-29T07:06:17.542Z,7.50
2018-09-29T07:08:50.105Z,5.47
2018-09-29T07:11:22.719Z,11.37
2018-09-29T07:13:55.591Z,9.40
2018-09-29T07:16:28.253Z,11.00
2018-09-29T07:19:01.020Z,5.80
2018-09-29T07:21:33.742Z,8.47
2018-09-29T07:24:06.426Z,8.87
2018-09-29T07:26:39.104Z,7.73
2018-09-29T07:29:11.730Z,6.73
2018-09-29T07:31:44.151Z,9.83
2018-09-29T07:34:16.694Z,8.30
2018-09-29T07:36:49.407Z,7.63
2018-09-29T07:39:22.032Z,5.97
2018-09-29T07:41:54.789Z,8.90
2018-09-29T07:44:27.422Z,5.43
2018-09-29T07:47:00.055Z,9.97
2018-09-29T07:49:32.880Z,8.57
2018-09-29T07:52:05.731Z,5.53
2018-09-29T07:54:38.249Z,3.50
2018-09-29T07:57:10.857Z,6.70
2018-09-29T07:59:43.602Z,6.53
2018-09-29T08:02:16.378Z,11.10
2018-09-29T08:04:48.850Z,8.47
2018-09-29T08:07:21.313Z,9.93
2018-09-29T08:09:53.784Z,6.77
2018-09-29T08:12:26.539Z,7.17
2018-09-29T08:14:58.958Z,7.67
2018-09-29T08:17:31.474Z,6.83
2018-09-29T08:20:04.004Z,5.47
2018-09-29T08:22:36.630Z,6.00
2018-09-29T08:25:10.373Z,5.87
2018-09-29T08:27:43.376Z,6.60
2018-09-29T08:30:16.003Z,6.37
2018-09-29T08:32:48.978Z,8.17
2018-09-29T08:35:21.408Z,8.27
2018-09-29T08:37:54.368Z,6.73
2018-09-29T08:40:27.032Z,5.07
2018-09-29T08:42:59.484Z,9.60
2018-09-29T08:45:32.557Z,7.13
2018-09-29T08:48:05.536Z,11.03
2018-09-29T08:50:38.049Z,7.47
2018-09-29T08:53:10.980Z,3.80
2018-09-29T08:55:44.092Z,9.70
2018-09-29T08:58:17.198Z,5.30
2018-09-29T09:00:50.047Z,11.30
2018-09-29T09:03:23.035Z,3.87
2018-09-29T09:05:56.622Z,4.70
2018-09-29T09:08:29.547Z,4.53
2018-09-29T09:11:02.119Z,6.07
2018-09-29T09:13:35.083Z,3.77
2018-09-29T09:16:07.750Z,8.47
2018-09-29T09:18:40.210Z,5.43
2018-09-29T09:21:12.964Z,6.87
2018-09-29T09:23:45.527Z,5.17
2018-09-29T09:26:19.338Z,4.87
2018-09-29T09:28:52.071Z,3.47
2018-09-29T09:31:25.573Z,5.07
2018-09-29T09:33:58.318Z,4.00
2018-09-29T09:36:30.904Z,5.03
2018-09-29T09:39:05.107Z,2.97
2018-09-29T09:41:37.506Z,4.33
2018-09-29T09:44:10.038Z,3.67
2018-09-29T09:46:42.925Z,5.50
2018-09-29T09:49:15.598Z,5.37
2018-09-29T09:51:48.470Z,3.50
2018-09-29T09:54:20.876Z,5.63
2018-09-29T09:56:53.330Z,5.47
2018-09-29T09:59:26.009Z,3.57
2018-09-29T10:02:04.479Z,3.27
2018-09-29T10:04:37.266Z,4.80
2018-09-29T10:07:09.888Z,6.13
2018-09-29T10:09:42.306Z,5.03
2018-09-29T10:12:15.014Z,4.27
2018-09-29T10:14:47.454Z,3.50
2018-09-29T10:17:20.406Z,4.07
2018-09-29T10:19:52.838Z,3.80
2018-09-29T10:22:25.937Z,4.67
2018-09-29T10:24:58.563Z,3.87
2018-09-29T10:27:31.886Z,5.40
2018-09-29T10:30:05.197Z,7.07
2018-09-29T10:32:37.961Z,4.60
2018-09-29T10:35:10.801Z,5.20
2018-09-29T10:37:44.037Z,4.37
2018-09-29T10:40:16.650Z,2.97
2018-09-29T10:42:49.253Z,2.40
2018-09-29T10:45:21.992Z,5.87
2018-09-29T10:47:54.950Z,2.30
2018-09-29T10:50:27.580Z,3.87
2018-09-29T10:53:02.097Z,2.27
2018-09-29T10:55:34.833Z,2.60
2018-09-29T10:58:08.139Z,2.43
2018-09-29T11:00:40.730Z,2.90
2018-09-29T11:03:13.519Z,2.77
2018-09-29T11:05:46.142Z,3.50
2018-09-29T11:08:18.944Z,2.60
2018-09-29T11:10:51.753Z,5.20
2018-09-29T11:13:24.243Z,4.53
2018-09-29T11:15:56.856Z,7.50
2018-09-29T11:18:29.644Z,4.33
2018-09-29T11:21:02.298Z,4.03
2018-09-29T11:23:34.972Z,3.83
2018-09-29T11:26:07.413Z,4.70
2018-09-29T11:28:39.979Z,4.07
2018-09-29T11:31:12.713Z,4.30
2018-09-29T11:33:45.459Z,4.97
2018-09-29T11:36:17.895Z,2.77
2018-09-29T11:38:50.616Z,4.90
2018-09-29T11:41:23.089Z,4.37
2018-09-29T11:43:55.588Z,7.07
2018-09-29T11:46:28.026Z,5.00
2018-09-29T11:49:00.551Z,3.87
2018-09-29T11:51:33.009Z,4.23
2018-09-29T11:54:05.678Z,6.53
2018-09-29T11:56:38.510Z,5.47
2018-09-29T11:59:11.152Z,6.07
2018-09-29T12:01:43.733Z,3.60
2018-09-29T12:04:16.109Z,3.23
2018-09-29T12:06:48.773Z,1.97
2018-09-29T12:09:21.413Z,1.87
2018-09-29T12:11:54.172Z,1.97
2018-09-29T12:14:26.832Z,4.60
2018-09-29T12:16:59.414Z,1.37
2018-09-29T12:19:31.959Z,5.53
2018-09-29T12:22:04.384Z,5.77
2018-09-29T12:24:37.101Z,4.90
2018-09-29T12:27:09.799Z,4.87
2018-09-29T12:29:42.483Z,3.17
2018-09-29T12:32:15.162Z,3.13
2018-09-29T12:34:47.935Z,3.00
2018-09-29T12:37:20.662Z,3.83
2018-09-29T12:39:53.344Z,2.97
2018-09-29T12:42:26.051Z,3.83
2018-09-29T12:44:58.777Z,3.00
2018-09-29T12:47:31.495Z,3.27
2018-09-29T12:50:05.548Z,4.57
2018-09-29T12:52:38.014Z,7.10
2018-09-29T12:55:10.699Z,3.37
2018-09-29T12:57:43.084Z,4.47
2018-09-29T13:00:15.737Z,2.97
2018-09-29T13:02:49.147Z,6.20
2018-09-29T13:05:21.866Z,2.67
2018-09-29T13:07:54.343Z,5.27
2018-09-29T13:10:28.500Z,3.07
2018-09-29T13:13:01.038Z,4.33
2018-09-29T13:15:33.636Z,3.00
2018-09-29T13:18:07.125Z,2.40
2018-09-29T13:20:39.594Z,3.83
2018-09-29T13:23:12.002Z,1.53
2018-09-29T13:25:45.154Z,1.30
2018-09-29T13:28:17.771Z,4.17
2018-09-29T13:30:50.556Z,4.67
2018-09-29T13:33:23.121Z,2.13
2018-09-29T13:35:55.861Z,3.13
2018-09-29T13:38:28.325Z,4.50
2018-09-29T13:41:01.105Z,5.50
2018-09-29T13:43:33.905Z,4.07
2018-09-29T13:46:06.996Z,1.50
2018-09-29T13:48:39.705Z,2.67
2018-09-29T13:51:12.353Z,5.20
2018-09-29T13:53:45.226Z,3.03
2018-09-29T13:56:17.926Z,3.33
2018-09-29T13:58:50.486Z,2.57
2018-09-29T14:01:23.148Z,5.70
2018-09-29T14:03:55.860Z,4.23
2018-09-29T14:06:28.381Z,6.07
2018-09-29T14:09:00.815Z,3.37
2018-09-29T14:11:33.625Z,2.40
2018-09-29T14:14:07.075Z,6.20
2018-09-29T14:16:39.591Z,4.30
2018-09-29T14:19:12.030Z,2.77
2018-09-29T14:21:44.622Z,6.00
2018-09-29T14:24:17.191Z,1.17
2018-09-29T14:26:49.834Z,2.63
2018-09-29T14:29:22.344Z,2.07
2018-09-29T14:31:55.022Z,3.53
2018-09-29T14:34:27.595Z,2.03
2018-09-29T14:37:00.309Z,3.77
2018-09-29T14:39:32.733Z,2.20
2018-09-29T14:42:05.796Z,1.77
2018-09-29T14:44:38.242Z,3.90
2018-09-29T14:47:11.005Z,3.53
2018-09-29T14:49:43.702Z,5.00
2018-09-29T14:52:16.288Z,6.33
2018-09-29T14:54:48.888Z,2.33
2018-09-29T14:57:21.583Z,2.93
2018-09-29T14:59:54.983Z,3.87
2018-09-29T15:02:27.771Z,2.70
2018-09-29T15:05:00.508Z,3.10
2018-09-29T15:07:33.226Z,4.10
2018-09-29T15:10:06.065Z,4.33
2018-09-29T15:12:38.574Z,4.47
2018-09-29T15:15:11.029Z,4.43
2018-09-29T15:17:43.959Z,3.63
2018-09-29T15:20:16.642Z,3.10
2018-09-29T15:22:49.545Z,4.37
2018-09-29T15:25:22.113Z,4.37
2018-09-29T15:27:54.769Z,4.37
2018-09-29T15:30:27.466Z,2.60
2018-09-29T15:33:00.330Z,4.50
2018-09-29T15:35:32.798Z,4.50
2018-09-29T15:38:05.318Z,3.73
2018-09-29T15:40:37.993Z,7.10
2018-09-29T15:43:11.209Z,2.57
2018-09-29T15:45:43.669Z,5.40
2018-09-29T15:48:16.256Z,1.50
2018-09-29T15:50:48.846Z,2.67
2018-09-29T15:53:21.512Z,3.10
2018-09-29T15:55:54.051Z,4.80
2018-09-29T15:58:26.851Z,5.40
2018-09-29T16:00:59.639Z,5.60
2018-09-29T16:03:32.535Z,3.43
2018-09-29T16:06:05.252Z,6.00
2018-09-29T16:08:37.967Z,7.87
2018-09-29T16:11:10.647Z,6.40
2018-09-29T16:13:43.246Z,4.77
2018-09-29T16:16:15.845Z,2.43
2018-09-29T16:18:48.757Z,4.40
2018-09-29T16:21:21.271Z,4.63
2018-09-29T16:23:54.276Z,5.37
2018-09-29T16:26:26.882Z,5.53
2018-09-29T16:28:59.503Z,2.63
2018-09-29T16:31:34.846Z,2.17
2018-09-29T16:34:07.840Z,3.90
2018-09-29T16:36:40.475Z,4.17
2018-09-29T16:39:13.528Z,3.57
2018-09-29T16:41:46.209Z,4.57
2018-09-29T16:44:18.894Z,5.50
2018-09-29T16:46:51.665Z,4.03
2018-09-29T16:49:24.291Z,5.53
2018-09-29T16:51:56.953Z,3.30
2018-09-29T16:54:29.409Z,5.10
2018-09-29T16:57:02.223Z,5.97
2018-09-29T16:59:34.768Z,3.53
2018-09-29T17:02:07.425Z,6.53
2018-09-29T17:04:40.281Z,4.47
2018-09-29T17:07:12.976Z,5.80
2018-09-29T17:09:45.686Z,6.13
2018-09-29T17:12:18.726Z,4.33
2018-09-29T17:14:51.430Z,6.53
2018-09-29T17:17:24.593Z,4.53
2018-09-29T17:19:57.390Z,5.17
2018-09-29T17:22:30.034Z,4.90
2018-09-29T17:25:02.593Z,4.10
2018-09-29T17:27:35.281Z,4.57
2018-09-29T17:30:07.875Z,4.13
2018-09-29T17:32:40.678Z,4.77
2018-09-29T17:35:13.378Z,4.80
2018-09-29T17:37:46.116Z,3.63
2018-09-29T17:40:18.869Z,5.37
2018-09-29T17:42:51.841Z,6.30
2018-09-29T17:45:24.655Z,7.90
2018-09-29T17:47:57.308Z,5.90
2018-09-29T17:50:29.991Z,6.37
2018-09-29T17:53:02.504Z,5.03
2018-09-29T17:55:35.895Z,5.20
2018-09-29T17:58:08.787Z,5.53
2018-09-29T18:00:41.208Z,3.90
2018-09-29T18:03:13.887Z,7.03
2018-09-29T18:05:46.529Z,7.07
2018-09-29T18:08:19.163Z,6.30
2018-09-29T18:10:51.688Z,8.50
2018-09-29T18:13:24.241Z,9.67
2018-09-29T18:15:56.846Z,9.43
2018-09-29T18:18:29.370Z,9.27
2018-09-29T18:21:01.967Z,11.13
2018-09-29T18:23:36.933Z,9.23
2018-09-29T18:26:09.374Z,9.60
2018-09-29T18:28:42.151Z,9.57
2018-09-29T18:31:14.695Z,12.20
2018-09-29T18:33:47.294Z,15.07
2018-09-29T18:36:20.337Z,11.63
2018-09-29T18:38:52.993Z,12.67
2018-09-29T18:41:25.970Z,11.30
2018-09-29T18:43:58.905Z,13.77
2018-09-29T18:46:31.930Z,11.93
2018-09-29T18:49:04.606Z,14.37
2018-09-29T18:51:37.162Z,13.70
2018-09-29T18:54:09.624Z,13.30
2018-09-29T18:56:42.304Z,13.90
2018-09-29T18:59:14.733Z,14.53
2018-09-29T19:01:47.645Z,23.10
2018-09-29T19:04:21.430Z,19.07
2018-09-29T19:06:55.761Z,14.23
2018-09-29T19:09:28.700Z,14.37
2018-09-29T19:12:01.570Z,19.10
2018-09-29T19:15:05.523Z,18.47
2018-09-29T19:17:38.210Z,16.43
2018-09-29T19:20:11.453Z,17.60
2018-09-29T19:22:44.900Z,15.40
2018-09-29T19:25:17.673Z,20.60
2018-09-29T19:27:51.033Z,16.67
2018-09-29T19:30:23.908Z,20.73
2018-09-29T19:32:56.972Z,17.87
2018-09-29T19:35:30.220Z,19.47
2018-09-29T19:38:02.740Z,20.50
2018-09-29T19:40:35.499Z,17.87
2018-09-29T19:43:08.081Z,20.00
2018-09-29T19:45:42.661Z,18.17
2018-09-29T19:48:15.602Z,17.63
2018-09-29T19:50:48.282Z,21.27
2018-09-29T19:53:20.734Z,22.47
2018-09-29T19:55:53.211Z,17.10
2018-09-29T19:58:26.566Z,18.90
2018-09-29T20:00:59.641Z,21.60
2018-09-29T20:03:32.680Z,20.57
2018-09-29T20:06:05.793Z,19.00
2018-09-29T20:08:38.762Z,20.07
2018-09-29T20:11:11.908Z,20.70
2018-09-29T20:13:50.027Z,26.37
2018-09-29T20:16:22.642Z,27.27
2018-09-29T20:18:56.721Z,26.17
2018-09-29T20:21:29.721Z,27.10
2018-09-29T20:24:02.268Z,23.37
2018-09-29T20:26:35.027Z,22.73
2018-09-29T20:29:08.200Z,25.93
2018-09-29T20:31:41.128Z,22.73
2018-09-29T20:34:13.723Z,22.23
2018-09-29T20:36:47.300Z,25.07
2018-09-29T20:39:19.892Z,24.20
2018-09-29T20:41:52.540Z,25.97
2018-09-29T20:44:25.194Z,25.73
2018-09-29T20:46:58.838Z,24.10
2018-09-29T20:49:31.526Z,25.03
2018-09-29T20:52:03.965Z,25.03
2018-09-29T20:54:37.506Z,28.87
2018-09-29T20:57:11.773Z,23.03
2018-09-29T20:59:47.712Z,27.73
2018-09-29T21:02:20.294Z,23.77
2018-09-29T21:04:53.333Z,22.83
2018-09-29T21:07:26.389Z,26.97
2018-09-29T21:09:59.082Z,21.30
2018-09-29T21:12:31.621Z,25.97
2018-09-29T21:15:05.008Z,29.93
2018-09-29T21:17:37.573Z,29.70
2018-09-29T21:20:10.193Z,23.40
2018-09-29T21:22:43.059Z,28.73
2018-09-29T21:25:15.797Z,20.87
2018-09-29T21:27:49.231Z,24.43
2018-09-29T21:30:21.936Z,27.27
2018-09-29T21:32:54.616Z,23.10
2018-09-29T21:35:27.240Z,18.83
2018-09-29T21:38:01.082Z,22.90
2018-09-29T21:40:33.787Z,21.37
2018-09-29T21:43:06.358Z,28.93
2018-09-29T21:45:38.959Z,19.40
2018-09-29T21:48:11.864Z,20.43
2018-09-29T21:50:44.862Z,18.07
2018-09-29T21:53:17.419Z,16.30
2018-09-29T21:55:49.882Z,14.63
2018-09-29T21:58:22.624Z,16.40
2018-09-29T22:00:56.116Z,8.80
2018-09-29T22:03:28.848Z,8.43
2018-09-29T22:06:01.493Z,7.93
2018-09-29T22:08:34.234Z,8.07
2018-09-29T22:11:06.736Z,11.03
2018-09-29T22:13:39.207Z,9.00
2018-09-29T22:16:12.265Z,10.07
2018-09-29T22:18:44.935Z,9.47
2018-09-29T22:21:18.149Z,10.57
2018-09-29T22:23:51.096Z,13.37
2018-09-29T22:26:23.700Z,9.43
2018-09-29T22:28:56.361Z,9.53
2018-09-29T22:31:28.973Z,12.33
2018-09-29T22:34:02.129Z,8.87
2018-09-29T22:36:34.798Z,9.40
2018-09-29T22:39:09.341Z,11.77
2018-09-29T22:41:42.326Z,10.67
2018-09-29T22:44:15.027Z,11.67
2018-09-29T22:46:47.433Z,12.20
2018-09-29T22:49:20.103Z,8.87
2018-09-29T22:51:52.637Z,13.87
2018-09-29T22:54:25.138Z,12.87
2018-09-29T22:56:57.660Z,11.53
2018-09-29T22:59:30.111Z,11.47
2018-09-29T23:02:02.848Z,12.33
2018-09-29T23:04:35.287Z,7.40
2018-09-29T23:07:08.127Z,7.00
2018-09-29T23:09:40.822Z,7.40
2018-09-29T23:12:13.306Z,6.83
2018-09-29T23:14:45.750Z,6.67
2018-09-29T23:17:18.544Z,8.30
2018-09-29T23:19:51.002Z,11.23
2018-09-29T23:22:24.019Z,5.27
2018-09-29T23:24:56.702Z,7.83
2018-09-29T23:27:29.476Z,5.77
2018-09-29T23:30:01.993Z,10.37
2018-09-29T23:32:34.527Z,7.40
2018-09-29T23:35:07.123Z,9.13
2018-09-29T23:37:39.840Z,8.37
2018-09-29T23:40:12.315Z,7.00
2018-09-29T23:42:44.997Z,7.73
2018-09-29T23:45:17.450Z,9.00
2018-09-29T23:47:49.870Z,7.70
2018-09-29T23:50:22.689Z,6.27
2018-09-29T23:52:55.367Z,8.47
2018-09-29T23:55:27.795Z,8.97
2018-09-29T23:58:00.260Z,10.13
